Time;durP1;ratioP1;P1;durP2;ratioP2;P2;SDS_P1;SDS_P2;PMS_P1;PMS_P2;Temp;Humidity;BMP_temperature;BMP_pressure;BME280_temperature;BME280_humidity;BME280_pressure;Samples;Min_cycle;Max_cycle;Signal;HPM_P1;HPM_P2
2022/01/13 00:01:52;;;;;;;36.53;22.65;;;;;;;4.34;78.82;102769.31;5018058;28;20029;-78
2022/01/13 00:04:18;;;;;;;35.13;22.42;;;;;;;4.35;78.74;102766.81;5017754;28;20455;-77
2022/01/13 00:06:44;;;;;;;31.52;20.75;;;;;;;4.31;78.87;102772.66;5017847;28;20054;-78
2022/01/13 00:09:10;;;;;;;32.00;20.48;;;;;;;4.28;79.18;102776.84;5018104;28;20041;-78
2022/01/13 00:11:36;;;;;;;29.52;18.98;;;;;;;4.32;79.19;102777.09;5017985;28;20088;-78
2022/01/13 00:17:06;;;;;;;29.23;18.70;;;;;;;4.28;79.29;102780.34;5017100;28;20100;-78
2022/01/13 00:22:28;;;;;;;32.15;19.15;;;;;;;4.30;79.45;102789.16;5017054;28;20057;-78
2022/01/13 00:24:58;;;;;;;32.83;18.98;;;;;;;4.22;79.57;102792.16;5011796;28;20069;-79
2022/01/13 00:27:25;;;;;;;28.67;20.10;;;;;;;4.22;79.60;102785.22;5014682;28;20045;-78
2022/01/13 00:29:54;;;;;;;34.53;20.83;;;;;;;4.20;79.72;102765.06;5020682;28;20025;-78
2022/01/13 00:32:21;;;;;;;27.23;17.17;;;;;;;4.18;79.25;102765.84;5014551;28;20048;-79
2022/01/13 00:34:47;;;;;;;28.90;17.88;;;;;;;4.18;79.42;102768.47;5012581;28;20034;-78
2022/01/13 00:37:12;;;;;;;27.13;17.25;;;;;;;4.20;79.27;102780.75;5021854;28;20381;-78
2022/01/13 00:39:37;;;;;;;24.80;15.80;;;;;;;4.16;79.32;102784.88;5014837;28;20042;-78
2022/01/13 00:42:04;;;;;;;27.70;16.67;;;;;;;4.20;79.15;102773.78;5014559;28;20456;-78
2022/01/13 00:44:35;;;;;;;22.27;14.43;;;;;;;4.14;79.18;102773.47;5013079;28;20050;-78
2022/01/13 00:47:01;;;;;;;25.35;15.43;;;;;;;4.16;79.23;102764.84;5010754;28;20046;-78
2022/01/13 00:49:27;;;;;;;28.65;15.38;;;;;;;4.09;79.29;102760.13;5014713;28;20053;-77
2022/01/13 00:51:52;;;;;;;26.63;15.18;;;;;;;3.98;80.09;102755.09;5014778;28;20092;-77
2022/01/13 00:54:18;;;;;;;23.80;12.88;;;;;;;3.99;80.08;102749.06;5014728;28;20120;-77
2022/01/13 00:56:43;;;;;;;23.83;14.25;;;;;;;3.98;80.01;102747.25;5013076;28;20132;-77
2022/01/13 00:59:11;;;;;;;20.35;12.00;;;;;;;3.96;79.97;102752.41;5014459;28;20033;-77
2022/01/13 01:01:39;;;;;;;21.77;12.48;;;;;;;3.94;80.24;102754.03;5013517;28;20033;-77
2022/01/13 01:04:06;;;;;;;19.95;12.38;;;;;;;3.93;80.13;102753.13;5014221;28;20045;-77
2022/01/13 01:06:32;;;;;;;22.33;12.52;;;;;;;3.90;80.28;102755.59;5014395;28;20030;-77
2022/01/13 01:08:58;;;;;;;23.10;12.52;;;;;;;3.91;80.29;102746.91;5013404;28;20045;-77
2022/01/13 01:11:27;;;;;;;20.23;12.48;;;;;;;3.92;80.53;102743.47;5013219;28;20037;-78
2022/01/13 01:13:56;;;;;;;20.02;13.27;;;;;;;3.88;80.21;102738.91;5014268;28;20076;-77
2022/01/13 01:16:23;;;;;;;24.65;13.35;;;;;;;3.72;80.52;102736.22;5012750;28;20048;-77
2022/01/13 01:18:59;;;;;;;20.73;12.55;;;;;;;3.58;81.47;102740.66;5013984;28;20488;-77
2022/01/13 01:26:39;;;;;;;21.65;13.43;;;;;;;3.27;82.23;102745.81;5012627;28;20030;-78
2022/01/13 01:31:45;;;;;;;22.05;14.50;;;;;;;3.04;83.63;102744.47;5021573;28;20045;-78
2022/01/13 01:36:35;;;;;;;22.63;15.23;;;;;;;2.91;84.38;102750.66;5020766;28;20043;-78
2022/01/13 01:39:02;;;;;;;27.17;16.63;;;;;;;2.85;84.36;102735.50;5012652;28;20524;-77
2022/01/13 01:41:27;;;;;;;25.58;15.90;;;;;;;2.77;84.91;102738.47;5013763;28;20030;-78
2022/01/13 01:43:57;;;;;;;29.80;17.38;;;;;;;2.69;85.10;102730.16;5012357;28;20447;-78
2022/01/13 01:46:23;;;;;;;26.92;16.35;;;;;;;2.60;85.74;102720.09;5013363;28;20038;-77
2022/01/13 01:48:49;;;;;;;32.17;19.05;;;;;;;2.54;85.65;102727.53;5013177;28;20060;-78
2022/01/13 01:51:14;;;;;;;28.33;17.75;;;;;;;2.48;85.61;102724.53;5013894;28;20041;-78
2022/01/13 01:53:40;;;;;;;27.35;18.20;;;;;;;2.46;85.54;102725.25;5013610;28;20096;-78
2022/01/13 01:56:05;;;;;;;31.95;18.70;;;;;;;2.43;86.00;102731.16;5013045;28;20038;-78
2022/01/13 01:58:32;;;;;;;34.30;18.83;;;;;;;2.37;86.70;102734.31;5013185;28;20048;-78
2022/01/13 02:00:58;;;;;;;30.10;18.80;;;;;;;2.33;86.61;102713.16;5013018;28;20053;-78
2022/01/13 02:03:24;;;;;;;33.25;18.50;;;;;;;2.30;86.59;102713.88;5012982;28;20037;-78
2022/01/13 02:05:50;;;;;;;32.33;17.55;;;;;;;2.26;86.45;102700.56;5011064;28;20037;-78
2022/01/13 02:08:15;;;;;;;30.17;18.10;;;;;;;2.22;86.83;102712.50;5011230;28;20045;-77
2022/01/13 02:10:43;;;;;;;29.77;17.45;;;;;;;2.17;87.04;102717.44;5013390;28;20034;-77
2022/01/13 02:13:12;;;;;;;36.38;20.05;;;;;;;2.13;86.68;102715.44;5012198;28;20087;-78
2022/01/13 02:15:49;;;;;;;31.73;18.65;;;;;;;2.13;87.17;102715.44;5011832;28;20503;-78
2022/01/13 02:18:14;;;;;;;30.38;18.95;;;;;;;2.13;86.82;102709.31;5009328;28;20642;-78
2022/01/13 02:21:00;;;;;;;35.78;17.40;;;;;;;2.15;86.92;102707.72;5011706;28;20041;-78
2022/01/13 02:23:32;;;;;;;28.85;17.50;;;;;;;2.28;86.77;102704.16;5010094;28;20052;-78
2022/01/13 02:25:58;;;;;;;29.08;16.98;;;;;;;2.30;86.54;102702.56;5012833;28;20045;-78
2022/01/13 02:28:24;;;;;;;30.58;16.05;;;;;;;2.35;85.82;102703.72;5019584;28;20093;-78
2022/01/13 02:30:49;;;;;;;26.23;16.35;;;;;;;2.37;85.69;102699.53;5019004;28;20053;-78
2022/01/13 02:33:14;;;;;;;32.35;17.00;;;;;;;2.39;85.44;102692.72;5015779;28;20045;-78
2022/01/13 02:35:40;;;;;;;28.60;17.77;;;;;;;2.41;85.25;102693.69;5012658;28;20133;-78
2022/01/13 02:38:10;;;;;;;26.77;16.08;;;;;;;2.49;84.90;102700.28;5014071;28;20045;-78
2022/01/13 02:40:36;;;;;;;33.83;18.38;;;;;;;2.45;85.18;102693.06;5013236;28;20527;-78
2022/01/13 02:43:01;;;;;;;29.98;17.50;;;;;;;2.42;84.95;102683.38;5013563;28;20058;-78
2022/01/13 02:45:33;;;;;;;32.42;17.98;;;;;;;2.47;85.01;102694.09;5013216;28;20046;-78
2022/01/13 02:48:00;;;;;;;27.27;17.73;;;;;;;2.54;84.73;102697.94;5013624;28;20044;-78
2022/01/13 02:50:25;;;;;;;27.83;17.23;;;;;;;2.52;84.64;102700.47;5028615;28;20037;-78
2022/01/13 02:52:51;;;;;;;27.27;17.48;;;;;;;2.58;84.45;102702.56;5012865;28;20034;-78
2022/01/13 02:55:16;;;;;;;28.50;17.10;;;;;;;2.63;84.18;102703.72;5020193;28;20121;-78
2022/01/13 02:57:41;;;;;;;25.52;16.27;;;;;;;2.66;84.11;102709.13;5011748;28;20046;-78
2022/01/13 03:00:08;;;;;;;27.15;15.95;;;;;;;2.75;83.55;102706.16;5012628;28;20038;-78
2022/01/13 03:02:34;;;;;;;25.88;15.50;;;;;;;2.79;83.34;102703.84;5012458;28;20030;-78
2022/01/13 03:04:59;;;;;;;25.95;16.33;;;;;;;2.82;83.46;102698.81;5011647;28;20420;-78
2022/01/13 03:07:26;;;;;;;28.75;16.92;;;;;;;2.88;82.57;102703.50;5019860;28;20504;-78
2022/01/13 03:09:52;;;;;;;25.55;15.32;;;;;;;2.80;82.81;102696.91;5012694;28;20504;-78
2022/01/13 03:12:18;;;;;;;22.65;15.10;;;;;;;2.84;82.68;102685.88;5012642;28;20034;-78
2022/01/13 03:14:43;;;;;;;26.63;15.85;;;;;;;2.72;82.87;102688.63;5012359;28;20049;-78
2022/01/13 03:17:09;;;;;;;27.67;15.48;;;;;;;2.73;83.39;102680.03;5012261;28;20042;-77
2022/01/13 03:19:34;;;;;;;28.83;14.98;;;;;;;2.76;83.18;102677.59;5012553;28;20034;-78
2022/01/13 03:22:00;;;;;;;29.17;14.75;;;;;;;2.76;83.20;102687.13;5011307;28;20064;-78
2022/01/13 03:24:26;;;;;;;26.35;15.05;;;;;;;2.75;82.92;102682.69;5019498;28;20736;-78
2022/01/13 03:26:53;;;;;;;31.98;15.75;;;;;;;2.71;83.25;102680.72;5011033;28;20421;-78
2022/01/13 03:29:21;;;;;;;27.33;15.52;;;;;;;2.60;83.19;102677.47;5012083;28;20126;-77
2022/01/13 03:31:47;;;;;;;25.17;16.27;;;;;;;2.61;83.37;102681.88;5012338;28;20073;-78
2022/01/13 03:34:14;;;;;;;25.15;15.00;;;;;;;2.67;83.14;102678.75;5012659;28;20065;-78
2022/01/13 03:36:43;;;;;;;25.90;14.85;;;;;;;2.62;83.50;102678.47;5012496;28;20030;-78
2022/01/13 03:39:10;;;;;;;22.38;13.90;;;;;;;2.54;83.59;102680.63;5012262;28;20099;-78
2022/01/13 03:41:37;;;;;;;26.55;16.33;;;;;;;2.54;83.81;102684.91;5012171;28;20077;-79
2022/01/13 03:44:07;;;;;;;26.63;15.93;;;;;;;2.52;83.53;102674.41;5012232;28;20045;-79
2022/01/13 03:46:35;;;;;;;23.33;15.07;;;;;;;2.47;83.90;102677.53;5012297;28;20727;-78
2022/01/13 03:49:00;;;;;;;25.65;16.40;;;;;;;2.47;83.97;102674.94;5011467;28;20055;-79
2022/01/13 03:51:52;;;;;;;21.33;14.52;;;;;;;2.58;83.83;102673.88;5020233;28;20036;-78
2022/01/13 03:54:52;;;;;;;30.65;15.55;;;;;;;2.67;83.43;102683.94;5012717;28;20030;-78
2022/01/13 03:57:27;;;;;;;25.85;15.85;;;;;;;2.74;83.33;102691.34;5012408;28;20148;-78
2022/01/13 04:00:37;;;;;;;28.02;16.15;;;;;;;2.81;82.73;102677.88;5014857;28;20436;-78
2022/01/13 04:03:03;;;;;;;28.23;15.27;;;;;;;2.90;82.61;102673.19;5015002;28;20046;-78
2022/01/13 04:05:28;;;;;;;24.92;14.55;;;;;;;2.93;82.26;102668.16;5015873;28;20053;-78
2022/01/13 04:07:53;;;;;;;24.58;14.80;;;;;;;2.94;82.49;102662.16;5016295;28;20041;-77
2022/01/13 04:11:06;;;;;;;29.27;15.65;;;;;;;2.98;82.18;102658.00;5015362;28;20060;-78
2022/01/13 04:13:49;;;;;;;24.55;15.48;;;;;;;2.97;82.11;102654.50;5012436;28;20034;-78
2022/01/13 04:16:17;;;;;;;24.25;15.15;;;;;;;2.94;82.57;102649.09;5011589;28;20114;-78
2022/01/13 04:18:44;;;;;;;24.65;16.55;;;;;;;2.99;82.14;102647.66;5016127;28;20038;-78
2022/01/13 04:21:09;;;;;;;27.98;15.43;;;;;;;3.07;82.27;102650.72;5016053;28;20124;-78
2022/01/13 04:23:35;;;;;;;27.88;16.13;;;;;;;3.12;82.21;102653.56;5015134;28;20080;-78
2022/01/13 04:26:05;;;;;;;23.83;14.50;;;;;;;3.07;82.32;102641.19;5016147;28;20053;-78
2022/01/13 04:28:31;;;;;;;22.83;13.98;;;;;;;3.12;81.56;102630.09;5018889;28;20029;-78
2022/01/13 04:31:02;;;;;;;24.38;15.40;;;;;;;3.08;81.92;102619.47;5019774;28;20053;-78
2022/01/13 04:33:29;;;;;;;26.05;15.68;;;;;;;3.24;81.66;102633.41;5015772;28;20069;-78
2022/01/13 04:35:55;;;;;;;25.17;16.27;;;;;;;3.15;81.59;102636.41;5015889;28;20029;-78
2022/01/13 04:38:21;;;;;;;28.15;15.48;;;;;;;3.19;81.42;102633.16;5017646;28;20484;-79
2022/01/13 04:40:48;;;;;;;25.25;15.43;;;;;;;3.14;82.11;102626.75;5015700;28;20500;-78
2022/01/13 04:43:14;;;;;;;25.13;14.20;;;;;;;3.09;81.64;102638.63;5014993;28;20038;-78
2022/01/13 04:45:39;;;;;;;23.83;15.57;;;;;;;3.07;82.08;102637.69;5015355;28;20489;-78
2022/01/13 04:48:06;;;;;;;26.58;15.88;;;;;;;3.12;82.06;102646.66;5009497;28;20045;-78
2022/01/13 04:50:31;;;;;;;23.88;14.35;;;;;;;3.20;81.58;102652.34;5012939;28;20030;-78
2022/01/13 04:52:57;;;;;;;25.75;13.65;;;;;;;3.21;81.71;102659.34;5014360;28;20066;-79
2022/01/13 04:55:27;;;;;;;24.63;13.88;;;;;;;3.27;81.48;102659.69;5014703;28;20184;-78
2022/01/13 04:57:53;;;;;;;24.83;13.40;;;;;;;3.23;81.62;102662.94;5014068;28;20049;-79
2022/01/13 05:00:19;;;;;;;21.65;13.60;;;;;;;3.25;81.08;102666.56;5016675;28;20507;-79
2022/01/13 05:02:45;;;;;;;24.13;12.85;;;;;;;3.18;81.24;102667.88;5015155;28;20041;-80
2022/01/13 05:05:11;;;;;;;26.80;14.57;;;;;;;3.22;81.38;102674.16;5014677;28;20405;-80
2022/01/13 05:07:36;;;;;;;26.15;14.00;;;;;;;3.24;81.53;102672.56;5017287;28;20038;-79
2022/01/13 05:10:02;;;;;;;19.90;12.27;;;;;;;3.21;81.04;102680.22;5016221;28;20092;-80
2022/01/13 05:12:34;;;;;;;22.25;13.57;;;;;;;3.20;81.30;102668.00;5016694;28;20038;-80
2022/01/13 05:15:05;;;;;;;21.75;14.20;;;;;;;3.22;81.21;102668.97;5015829;28;20038;-81
2022/01/13 05:18:03;;;;;;;24.35;13.75;;;;;;;3.22;81.27;102669.88;5014291;28;20065;-78
2022/01/13 05:20:39;;;;;;;22.63;13.43;;;;;;;3.25;81.47;102661.34;5013459;28;20033;-78
2022/01/13 05:23:07;;;;;;;21.95;13.07;;;;;;;3.27;81.38;102662.28;5014865;28;20037;-79
2022/01/13 05:25:33;;;;;;;23.90;14.10;;;;;;;3.24;80.83;102659.50;5015142;28;20452;-78
2022/01/13 05:27:58;;;;;;;22.55;13.18;;;;;;;3.18;81.28;102664.38;5013149;28;20030;-79
2022/01/13 05:30:24;;;;;;;21.08;13.98;;;;;;;3.29;80.77;102668.50;5009759;28;20045;-78
2022/01/13 05:32:49;;;;;;;21.48;13.43;;;;;;;3.21;80.91;102662.84;5011440;28;20044;-79
2022/01/13 05:35:18;;;;;;;21.67;13.15;;;;;;;3.26;80.88;102652.69;5011598;28;20080;-78
2022/01/13 05:37:44;;;;;;;22.40;13.52;;;;;;;3.28;81.07;102653.66;5011081;28;20496;-79
2022/01/13 05:40:11;;;;;;;23.27;13.48;;;;;;;3.33;80.34;102644.41;5013491;28;20069;-80
2022/01/13 05:42:37;;;;;;;22.85;14.52;;;;;;;3.29;80.40;102651.13;5008530;28;20033;-79
2022/01/13 05:45:03;;;;;;;21.25;13.88;;;;;;;3.26;80.97;102652.69;5009432;28;20026;-79
2022/01/13 05:47:28;;;;;;;22.73;13.48;;;;;;;3.31;80.59;102640.78;5011668;28;20029;-78
2022/01/13 05:49:54;;;;;;;21.00;12.77;;;;;;;3.31;80.48;102629.47;5013801;28;20038;-80
2022/01/13 05:52:19;;;;;;;22.50;12.60;;;;;;;3.34;80.32;102630.53;5013090;28;20068;-79
2022/01/13 05:54:44;;;;;;;22.08;13.70;;;;;;;3.28;80.47;102630.19;5014294;28;20042;-80
2022/01/13 05:57:10;;;;;;;24.25;13.13;;;;;;;3.23;80.92;102632.53;5015566;28;20048;-80
2022/01/13 05:59:36;;;;;;;22.38;12.15;;;;;;;3.26;80.59;102621.34;5011906;28;20046;-80
2022/01/13 06:02:02;;;;;;;20.85;12.73;;;;;;;3.29;80.31;102624.13;5012792;28;20036;-80
2022/01/13 06:04:27;;;;;;;25.58;13.65;;;;;;;3.32;80.11;102633.84;5015313;28;20139;-80
2022/01/13 06:06:53;;;;;;;17.73;10.85;;;;;;;3.27;80.46;102630.97;5015359;28;20615;-80
2022/01/13 06:09:18;;;;;;;22.00;11.65;;;;;;;3.27;80.41;102637.13;5015235;28;20033;-80
2022/01/13 06:11:54;;;;;;;19.83;11.48;;;;;;;3.21;80.00;102633.25;5015862;28;20112;-80
2022/01/13 06:14:19;;;;;;;22.65;11.48;;;;;;;3.26;80.27;102632.69;5015252;28;20042;-81
2022/01/13 06:16:45;;;;;;;22.98;12.07;;;;;;;3.26;80.29;102634.41;5012524;28;20044;-80
2022/01/13 06:19:10;;;;;;;22.27;11.65;;;;;;;3.21;80.69;102638.47;5022181;28;20069;-79
2022/01/13 06:21:36;;;;;;;19.38;11.38;;;;;;;3.24;80.04;102630.81;5015099;28;20381;-80
2022/01/13 06:24:01;;;;;;;19.27;10.50;;;;;;;3.26;80.35;102637.03;5014343;28;20369;-80
2022/01/13 06:26:27;;;;;;;20.88;11.63;;;;;;;3.26;79.81;102634.41;5013711;28;20058;-80
2022/01/13 06:28:53;;;;;;;18.55;9.90;;;;;;;3.30;79.89;102633.75;5014876;28;20033;-80
2022/01/13 06:31:18;;;;;;;18.27;10.35;;;;;;;3.29;80.30;102634.56;5014085;28;20030;-80
2022/01/13 06:33:43;;;;;;;20.20;10.48;;;;;;;3.30;80.08;102649.41;5011817;28;20491;-80
2022/01/13 06:36:09;;;;;;;19.67;10.73;;;;;;;3.33;80.36;102643.47;5011835;28;20034;-79
2022/01/13 06:38:34;;;;;;;21.08;10.38;;;;;;;3.40;80.06;102650.84;5013681;28;20041;-79
2022/01/13 06:41:01;;;;;;;20.48;8.88;;;;;;;3.34;80.09;102661.84;5013566;28;20099;-80
2022/01/13 06:43:27;;;;;;;19.98;10.60;;;;;;;3.41;80.00;102663.09;5014879;28;20042;-80
2022/01/13 06:45:53;;;;;;;20.48;9.82;;;;;;;3.39;nan;102675.16;5012796;28;20042;-80
2022/01/13 06:48:18;;;;;;;18.38;9.77;;;;;;;3.47;79.35;102680.00;5022321;28;20092;-79
2022/01/13 06:50:43;;;;;;;18.33;10.00;;;;;;;3.39;79.80;102673.44;5014775;28;20051;-79
2022/01/13 06:53:09;;;;;;;15.23;9.13;;;;;;;3.45;79.70;102660.72;5014775;28;20041;-79
2022/01/13 06:55:34;;;;;;;16.52;8.65;;;;;;;3.44;79.22;102661.56;5014293;28;20029;-79
2022/01/13 06:57:59;;;;;;;15.60;9.00;;;;;;;3.48;79.29;102660.94;5021769;28;20481;-80
2022/01/13 07:00:25;;;;;;;17.13;9.45;;;;;;;3.49;79.29;102657.50;5012638;28;20124;-80
2022/01/13 07:02:52;;;;;;;14.30;8.73;;;;;;;3.53;78.92;102650.72;5011108;28;20077;-80
2022/01/13 07:05:17;;;;;;;16.88;9.82;;;;;;;3.53;79.03;102652.44;5014770;28;20034;-80
2022/01/13 07:07:43;;;;;;;20.90;9.50;;;;;;;3.54;79.06;102662.06;5013883;28;20057;-80
2022/01/13 07:10:10;;;;;;;17.92;9.75;;;;;;;3.60;78.49;102659.81;5013600;28;20034;-79
2022/01/13 07:12:36;;;;;;;16.77;8.35;;;;;;;3.62;79.06;102666.03;5014717;28;20068;-80
2022/01/13 07:15:03;;;;;;;16.67;8.70;;;;;;;3.68;78.37;102668.97;5013575;28;20524;-80
2022/01/13 07:17:28;;;;;;;19.83;10.02;;;;;;;3.66;78.45;102681.03;5014436;28;20041;-80
2022/01/13 07:19:54;;;;;;;16.05;8.77;;;;;;;3.69;78.49;102676.91;5013722;28;20034;-80
2022/01/13 07:22:19;;;;;;;16.52;9.18;;;;;;;3.62;78.74;102669.53;5013383;28;20050;-80
2022/01/13 07:24:44;;;;;;;15.35;8.32;;;;;;;3.68;78.75;102676.81;5013855;28;20103;-79
2022/01/13 07:27:10;;;;;;;15.57;8.75;;;;;;;3.58;78.52;102678.00;5012115;28;20038;-80
2022/01/13 07:29:35;;;;;;;18.90;9.77;;;;;;;3.67;78.59;102680.25;5016724;28;20445;-81
2022/01/13 07:32:00;;;;;;;17.98;8.70;;;;;;;3.70;78.04;102683.03;5018727;28;20392;-80
2022/01/13 07:34:26;;;;;;;16.08;9.07;;;;;;;3.61;78.48;102698.16;5018090;28;20480;-81
2022/01/13 07:36:51;;;;;;;15.80;9.38;;;;;;;3.63;78.09;102702.66;5018250;28;20037;-79
2022/01/13 07:39:16;;;;;;;14.57;8.23;;;;;;;3.75;77.94;102712.91;5018197;28;20089;-80
2022/01/13 07:41:42;;;;;;;14.70;8.63;;;;;;;3.71;78.07;102721.38;5013512;28;20112;-79
2022/01/13 07:44:16;;;;;;;17.42;8.80;;;;;;;3.70;78.21;102727.44;5025577;28;20045;-80
2022/01/13 07:46:41;;;;;;;13.40;8.18;;;;;;;3.65;78.38;102726.25;5017900;28;20464;-80
2022/01/13 07:49:06;;;;;;;14.20;8.05;;;;;;;3.71;78.39;102729.22;5014916;28;20176;-80
2022/01/13 07:51:32;;;;;;;19.27;9.20;;;;;;;3.74;78.23;102725.06;5017631;28;20547;-80
2022/01/13 07:53:57;;;;;;;17.88;8.77;;;;;;;3.79;77.64;102735.78;5017188;28;20412;-80
2022/01/13 07:56:23;;;;;;;15.05;8.45;;;;;;;3.73;77.97;102725.88;5017712;28;20481;-80
2022/01/13 07:58:48;;;;;;;17.58;9.07;;;;;;;3.68;78.07;102716.00;5017466;28;20041;-80
2022/01/13 08:01:13;;;;;;;14.52;8.45;;;;;;;3.75;77.47;102694.63;5013990;28;20033;-80
2022/01/13 08:03:39;;;;;;;14.90;8.82;;;;;;;3.64;78.02;102695.72;5016865;28;20037;-80
2022/01/13 08:06:05;;;;;;;15.50;8.20;;;;;;;3.80;78.12;102708.84;5016742;28;20472;-80
2022/01/13 08:08:32;;;;;;;15.32;8.95;;;;;;;3.75;77.25;102718.16;5011940;28;20040;-80
2022/01/13 08:10:58;;;;;;;21.27;9.50;;;;;;;3.76;77.35;102701.66;5015525;28;20152;-79
2022/01/13 08:13:23;;;;;;;19.98;8.63;;;;;;;3.85;77.66;102691.72;5015980;28;20129;-80
2022/01/13 08:15:52;;;;;;;17.52;9.13;;;;;;;4.01;76.91;102701.31;5016856;28;20044;-80
2022/01/13 08:21:01;;;;;;;17.33;8.52;;;;;;;4.04;76.11;102706.72;5013705;28;20042;-80
2022/01/13 08:23:26;;;;;;;17.73;8.73;;;;;;;3.99;76.35;102695.09;5017060;28;20400;-80
2022/01/13 08:25:52;;;;;;;14.13;8.40;;;;;;;4.05;76.45;102686.69;5015509;28;20041;-80
2022/01/13 08:28:17;;;;;;;17.05;7.63;;;;;;;3.97;76.11;102694.09;5016927;28;20510;-81
2022/01/13 08:30:42;;;;;;;15.45;8.52;;;;;;;4.09;76.73;102696.50;5017157;28;20397;-80
2022/01/13 08:33:08;;;;;;;13.73;8.40;;;;;;;4.16;75.70;102699.50;5017274;28;20045;-80
2022/01/13 08:35:33;;;;;;;16.83;8.55;;;;;;;4.10;75.95;102685.22;5024139;28;20029;-80
2022/01/13 08:38:05;;;;;;;14.50;7.55;;;;;;;4.10;76.00;102675.66;5014740;28;20111;-81
2022/01/13 08:40:34;;;;;;;14.13;8.02;;;;;;;4.23;75.51;102678.97;5016740;28;20038;-80
2022/01/13 08:43:00;;;;;;;17.05;8.77;;;;;;;4.26;75.65;102666.94;5015085;28;20488;-80
2022/01/13 08:45:25;;;;;;;16.17;8.48;;;;;;;4.23;75.51;102679.84;5014889;28;20092;-80
2022/01/13 08:47:51;;;;;;;16.30;8.05;;;;;;;4.31;75.52;102672.44;5016997;28;20034;-80
2022/01/13 08:50:16;;;;;;;17.67;8.75;;;;;;;4.30;74.71;102684.59;5015215;28;20037;-80
2022/01/13 08:52:44;;;;;;;15.20;9.18;;;;;;;4.36;75.37;102669.25;5012354;28;20046;-80
2022/01/13 08:55:10;;;;;;;13.18;7.45;;;;;;;4.48;74.08;102694.22;5015262;28;20394;-79
2022/01/13 08:57:35;;;;;;;13.63;7.80;;;;;;;4.52;74.30;102698.81;5016985;28;20034;-80
2022/01/13 09:00:02;;;;;;;14.45;7.90;;;;;;;4.48;74.46;102699.47;5014219;28;20030;-79
2022/01/13 09:02:33;;;;;;;17.75;8.85;;;;;;;4.48;74.05;102696.84;5016187;28;20034;-80
2022/01/13 09:04:58;;;;;;;14.50;8.00;;;;;;;4.65;74.25;102672.50;5021855;28;20038;-79
2022/01/13 09:07:23;;;;;;;13.85;7.95;;;;;;;4.69;74.16;102652.63;5020740;28;20042;-79
2022/01/13 09:09:49;;;;;;;16.08;8.57;;;;;;;4.68;73.78;102656.94;5013970;28;20164;-80
2022/01/13 09:12:14;;;;;;;16.17;8.10;;;;;;;4.63;73.84;102650.59;5014523;28;20038;-80
2022/01/13 09:14:41;;;;;;;16.05;7.50;;;;;;;4.57;74.16;102658.13;4994763;28;20050;-79
2022/01/13 09:17:12;;;;;;;12.68;7.88;;;;;;;4.65;74.60;102650.69;5012440;28;20049;-79
2022/01/13 09:19:37;;;;;;;17.20;8.55;;;;;;;4.59;74.46;102669.56;5013665;28;20045;-80
2022/01/13 09:22:03;;;;;;;14.60;8.30;;;;;;;4.75;73.45;102671.25;5012758;28;20036;-80
2022/01/13 09:24:29;;;;;;;16.77;9.40;;;;;;;4.68;74.31;102672.66;5013903;28;20504;-79
2022/01/13 09:26:56;;;;;;;17.17;10.02;;;;;;;4.75;74.80;102671.25;5014055;28;20116;-80
2022/01/13 09:29:21;;;;;;;15.02;8.13;;;;;;;4.82;74.16;102676.91;5013347;28;20507;-79
2022/01/13 09:31:47;;;;;;;15.23;7.38;;;;;;;4.76;74.15;102655.63;5014667;28;20030;-79
2022/01/13 09:34:12;;;;;;;13.98;7.80;;;;;;;4.79;74.08;102650.59;5024298;28;20037;-79
2022/01/13 09:36:38;;;;;;;12.77;7.15;;;;;;;4.88;73.39;102664.94;5014849;28;20120;-80
2022/01/13 09:39:06;;;;;;;16.30;8.35;;;;;;;4.95;73.46;102667.03;4996740;28;20072;-79
2022/01/13 09:41:32;;;;;;;15.93;7.57;;;;;;;4.92;73.81;102678.25;5013119;28;20128;-80
2022/01/13 09:44:00;;;;;;;15.90;8.25;;;;;;;4.89;73.85;102657.16;5013094;28;20037;-79
2022/01/13 09:46:27;;;;;;;15.73;8.80;;;;;;;4.93;73.69;102660.84;5014081;28;20157;-80
2022/01/13 09:48:54;;;;;;;12.13;7.25;;;;;;;4.96;73.38;102663.63;5013122;28;20069;-79
2022/01/13 09:51:24;;;;;;;14.70;8.20;;;;;;;4.96;73.79;102666.22;5013740;28;20061;-79
2022/01/13 09:53:49;;;;;;;16.08;8.27;;;;;;;5.00;73.69;102661.25;5014488;28;20093;-80
2022/01/13 09:56:14;;;;;;;14.38;8.38;;;;;;;5.04;73.31;102678.00;5014138;28;20511;-79
2022/01/13 09:58:43;;;;;;;15.85;7.50;;;;;;;5.05;73.76;102666.69;5014531;28;20459;-79
2022/01/13 10:01:09;;;;;;;12.80;7.05;;;;;;;5.14;72.80;102658.41;5013723;28;20128;-79
2022/01/13 10:03:37;;;;;;;19.15;11.30;;;;;;;5.20;74.13;102664.84;5014272;28;20120;-80
2022/01/13 10:06:10;;;;;;;16.60;8.13;;;;;;;5.23;73.00;102654.50;5013325;28;20515;-79
2022/01/13 10:08:58;;;;;;;14.88;8.35;;;;;;;5.34;72.87;102657.66;5012876;28;20038;-79
2022/01/13 10:11:35;;;;;;;12.52;7.28;;;;;;;5.41;72.81;102657.16;5025007;28;20065;-79
2022/01/13 10:14:04;;;;;;;12.65;7.55;;;;;;;5.38;72.55;102669.22;5029039;28;20472;-79
2022/01/13 10:16:29;;;;;;;15.48;7.82;;;;;;;5.31;72.35;102661.84;5013914;28;20441;-80
2022/01/13 10:18:55;;;;;;;13.43;7.80;;;;;;;5.26;72.76;102665.13;5013748;28;20069;-79
2022/01/13 10:21:21;;;;;;;15.55;8.38;;;;;;;5.33;72.67;102658.50;5013832;28;20038;-79
2022/01/13 10:24:12;;;;;;;15.02;8.98;;;;;;;5.33;73.00;102661.13;5013529;28;20084;-80
2022/01/13 10:26:39;;;;;;;15.65;7.43;;;;;;;5.36;73.47;102662.97;5009564;28;20048;-80
2022/01/13 10:29:07;;;;;;;13.93;7.43;;;;;;;5.40;72.49;102662.31;5013660;28;20038;-79
2022/01/13 10:31:47;;;;;;;13.02;7.45;;;;;;;5.48;72.56;102656.63;5014029;28;20084;-79
2022/01/13 10:34:22;;;;;;;13.63;8.00;;;;;;;5.47;72.27;102651.31;5012434;28;20048;-79
2022/01/13 10:37:00;;;;;;;16.88;7.40;;;;;;;5.63;72.26;102653.88;5013350;28;20092;-79
2022/01/13 10:39:43;;;;;;;13.40;7.05;;;;;;;5.71;71.88;102649.88;5012637;28;20048;-79
2022/01/13 10:45:00;;;;;;;14.57;8.32;;;;;;;5.74;72.03;102641.28;5004144;28;20050;-79
2022/01/13 10:47:27;;;;;;;14.68;8.32;;;;;;;5.82;72.08;102636.41;5011697;28;20037;-78
2022/01/13 10:49:52;;;;;;;16.33;7.80;;;;;;;5.87;72.19;102637.50;5012804;28;20519;-79
2022/01/13 10:52:24;;;;;;;15.65;7.80;;;;;;;5.97;71.64;102633.59;5009097;28;20034;-80
2022/01/13 10:54:55;;;;;;;15.45;7.53;;;;;;;6.09;71.33;102626.31;5013058;28;20045;-79
2022/01/13 10:57:23;;;;;;;16.08;7.40;;;;;;;6.16;71.53;102638.88;5013592;28;20037;-79
2022/01/13 10:59:48;;;;;;;15.30;7.60;;;;;;;6.12;71.00;102637.81;5013572;28;20041;-79
2022/01/13 11:02:14;;;;;;;16.63;7.97;;;;;;;6.09;71.06;102640.31;5012150;28;20036;-79
2022/01/13 11:04:39;;;;;;;14.48;7.32;;;;;;;5.95;71.29;102643.13;5011857;28;20034;-79
2022/01/13 11:07:15;;;;;;;15.38;7.65;;;;;;;6.10;71.41;102638.59;5014438;28;20041;-80
2022/01/13 11:09:43;;;;;;;16.58;7.97;;;;;;;6.02;71.57;102625.13;5011471;28;20479;-79
2022/01/13 11:12:10;;;;;;;13.95;7.05;;;;;;;5.96;71.83;102622.22;5012551;28;20521;-79
2022/01/13 11:14:42;;;;;;;13.25;7.07;;;;;;;6.06;71.45;102621.81;5010718;28;20038;-79
2022/01/13 11:17:08;;;;;;;14.93;7.20;;;;;;;6.11;71.25;102615.06;5011557;28;20033;-79
2022/01/13 11:19:34;;;;;;;14.98;6.95;;;;;;;6.14;71.06;102609.97;5009165;28;20850;-79
2022/01/13 11:21:59;;;;;;;10.90;6.80;;;;;;;6.04;71.52;102602.50;5011178;28;20038;-79
2022/01/13 11:24:25;;;;;;;13.15;7.75;;;;;;;6.10;71.86;102592.31;5012720;28;20087;-78
2022/01/13 11:26:50;;;;;;;13.32;7.05;;;;;;;6.11;71.53;102593.22;5011295;28;20038;-78
2022/01/13 11:29:17;;;;;;;14.27;7.18;;;;;;;6.15;71.02;102592.50;5009469;28;20053;-79
2022/01/13 11:31:43;;;;;;;14.40;7.15;;;;;;;6.13;71.45;102592.44;5007942;28;20031;-79
2022/01/13 11:34:09;;;;;;;12.30;6.90;;;;;;;6.21;71.43;102590.16;5012262;28;20026;-80
2022/01/13 11:36:35;;;;;;;13.82;6.32;;;;;;;6.26;71.02;102582.47;4995306;28;20045;-78
2022/01/13 11:39:06;;;;;;;12.88;6.57;;;;;;;6.27;70.61;102584.31;5013005;28;20034;-80
2022/01/13 11:41:31;;;;;;;13.70;6.80;;;;;;;6.22;70.72;102581.47;5013358;28;20034;-80
2022/01/13 11:44:13;;;;;;;10.95;5.75;;;;;;;6.23;70.97;102592.84;5013732;28;20077;-80
2022/01/13 11:46:46;;;;;;;12.67;6.40;;;;;;;6.38;70.61;102579.53;5012723;28;20135;-79